createdAt,value
2022-11-17T00:00:12.604Z,2.40
2022-11-17T00:01:12.907Z,2.40
2022-11-17T00:02:13.216Z,2.40
2022-11-17T00:03:13.498Z,2.50
2022-11-17T00:04:13.832Z,2.50
2022-11-17T00:05:14.126Z,2.30
2022-11-17T00:06:14.394Z,2.70
2022-11-17T00:07:14.772Z,2.70
2022-11-17T00:08:14.958Z,2.70
2022-11-17T00:09:15.234Z,2.60
2022-11-17T00:10:15.543Z,2.60
2022-11-17T00:11:15.866Z,2.50
2022-11-17T00:12:20.513Z,2.70
2022-11-17T00:13:17.476Z,2.70
2022-11-17T00:14:16.784Z,2.60
2022-11-17T00:15:17.048Z,2.50
2022-11-17T00:16:17.444Z,2.50
2022-11-17T00:17:17.636Z,2.50
2022-11-17T00:18:17.988Z,2.40
2022-11-17T00:19:18.361Z,2.40
2022-11-17T00:20:18.661Z,2.60
2022-11-17T00:21:18.904Z,2.50
2022-11-17T00:22:19.288Z,2.60
2022-11-17T00:23:19.459Z,2.60
2022-11-17T00:24:19.801Z,2.60
2022-11-17T00:25:20.081Z,2.60
2022-11-17T00:26:20.406Z,2.90
2022-11-17T00:27:20.774Z,2.70
2022-11-17T00:28:20.983Z,2.60
2022-11-17T00:29:21.165Z,2.50
2022-11-17T00:30:21.423Z,2.60
2022-11-17T00:31:21.767Z,2.50
2022-11-17T00:32:22.151Z,2.50
2022-11-17T00:33:22.331Z,2.50
2022-11-17T00:34:22.699Z,2.50
2022-11-17T00:35:23.053Z,2.50
2022-11-17T00:36:23.226Z,2.60
2022-11-17T00:37:24.410Z,2.60
2022-11-17T00:38:23.807Z,2.40
2022-11-17T00:39:24.157Z,2.70
2022-11-17T00:40:24.380Z,2.40
2022-11-17T00:41:24.763Z,2.70
2022-11-17T00:42:24.979Z,2.70
2022-11-17T00:43:25.309Z,2.70
2022-11-17T00:44:25.556Z,2.40
2022-11-17T00:45:25.879Z,2.50
2022-11-17T00:46:26.182Z,2.40
2022-11-17T00:47:26.494Z,2.70
2022-11-17T00:48:26.694Z,2.40
2022-11-17T00:49:27.001Z,2.60
2022-11-17T00:50:27.340Z,2.50
2022-11-17T00:51:27.682Z,2.90
2022-11-17T00:52:27.968Z,2.70
2022-11-17T00:53:28.256Z,2.40
2022-11-17T00:54:28.617Z,2.60
2022-11-17T00:55:29.005Z,2.50
2022-11-17T00:56:29.202Z,2.30
2022-11-17T00:57:29.421Z,2.60
2022-11-17T00:58:29.704Z,2.60
2022-11-17T00:59:30.004Z,2.70
2022-11-17T01:00:30.394Z,2.70
2022-11-17T01:01:30.653Z,2.60
2022-11-17T01:02:30.840Z,2.60
2022-11-17T01:03:31.154Z,2.40
2022-11-17T01:04:31.503Z,2.70
2022-11-17T01:05:33.201Z,2.70
2022-11-17T01:06:32.047Z,2.40
2022-11-17T01:07:32.390Z,2.40
2022-11-17T01:08:33.044Z,2.60
2022-11-17T01:09:32.883Z,2.50
2022-11-17T01:10:33.200Z,2.60
2022-11-17T01:11:33.475Z,2.40
2022-11-17T01:12:33.768Z,2.70
2022-11-17T01:13:34.371Z,2.60
2022-11-17T01:14:34.324Z,2.50
2022-11-17T01:15:34.668Z,2.60
2022-11-17T01:16:34.946Z,2.90
2022-11-17T01:17:35.173Z,2.70
2022-11-17T01:18:35.477Z,2.40
2022-11-17T01:19:35.778Z,2.60
2022-11-17T01:20:36.109Z,2.70
2022-11-17T01:21:36.396Z,2.60
2022-11-17T01:22:36.679Z,2.70
2022-11-17T01:23:37.174Z,2.80
2022-11-17T01:24:37.340Z,2.80
2022-11-17T01:25:37.588Z,3.00
2022-11-17T01:26:37.933Z,2.80
2022-11-17T01:27:38.214Z,2.60
2022-11-17T01:28:38.507Z,3.00
2022-11-17T01:29:39.210Z,2.80
2022-11-17T01:30:39.030Z,2.60
2022-11-17T01:31:39.344Z,2.50
2022-11-17T01:32:39.667Z,2.60
2022-11-17T01:33:39.943Z,2.60
2022-11-17T01:34:40.247Z,2.60
2022-11-17T01:35:40.567Z,2.70
2022-11-17T01:36:40.878Z,2.70
2022-11-17T01:37:41.141Z,2.70
2022-11-17T01:38:41.419Z,2.60
2022-11-17T01:39:41.704Z,2.50
2022-11-17T01:40:41.985Z,2.60
2022-11-17T01:41:42.272Z,2.40
2022-11-17T01:42:42.602Z,2.50
2022-11-17T01:43:42.863Z,2.50
2022-11-17T01:44:43.187Z,2.70
2022-11-17T01:45:43.466Z,2.40
2022-11-17T01:46:43.735Z,2.40
2022-11-17T01:47:44.066Z,2.30
2022-11-17T01:48:44.361Z,2.30
2022-11-17T01:49:44.656Z,2.50
2022-11-17T01:50:44.969Z,2.50
2022-11-17T01:51:45.244Z,2.50
2022-11-17T01:52:45.586Z,2.50
2022-11-17T01:53:45.888Z,2.50
2022-11-17T01:54:46.136Z,2.50
2022-11-17T01:55:46.475Z,2.30
2022-11-17T01:56:46.747Z,2.50
2022-11-17T01:57:47.067Z,2.40
2022-11-17T01:58:47.385Z,2.40
2022-11-17T01:59:47.699Z,2.50
2022-11-17T02:00:48.161Z,2.60
2022-11-17T02:01:48.363Z,2.30
2022-11-17T02:02:48.562Z,2.50
2022-11-17T02:03:48.845Z,2.60
2022-11-17T02:04:49.166Z,2.30
2022-11-17T02:05:49.454Z,2.30
2022-11-17T02:06:49.864Z,2.30
2022-11-17T02:07:50.023Z,2.30
2022-11-17T02:08:50.334Z,2.40
2022-11-17T02:09:50.561Z,2.20
2022-11-17T02:10:51.989Z,2.40
2022-11-17T02:11:51.172Z,2.30
2022-11-17T02:12:51.482Z,2.40
2022-11-17T02:13:51.790Z,2.20
2022-11-17T02:14:52.091Z,2.20
2022-11-17T02:15:52.293Z,2.00
2022-11-17T02:16:52.657Z,2.20
2022-11-17T02:17:52.916Z,2.10
2022-11-17T02:18:53.308Z,2.10
2022-11-17T02:19:53.573Z,2.20
2022-11-17T02:20:53.908Z,2.10
2022-11-17T02:21:54.216Z,2.00
2022-11-17T02:22:54.489Z,2.20
2022-11-17T02:23:54.872Z,2.20
2022-11-17T02:24:55.158Z,2.00
2022-11-17T02:25:55.421Z,2.20
2022-11-17T02:26:55.807Z,2.20
2022-11-17T02:27:56.118Z,2.10
2022-11-17T02:28:57.090Z,2.00
2022-11-17T02:29:56.667Z,2.30
2022-11-17T02:30:56.895Z,2.20
2022-11-17T02:31:57.219Z,2.00
2022-11-17T02:32:57.520Z,2.00
2022-11-17T02:33:57.799Z,2.00
2022-11-17T02:34:58.130Z,1.90
2022-11-17T02:35:58.445Z,2.00
2022-11-17T02:36:58.752Z,1.90
2022-11-17T02:37:59.071Z,2.10
2022-11-17T02:38:59.385Z,2.10
2022-11-17T02:39:59.771Z,2.00
2022-11-17T02:41:00.043Z,2.10
2022-11-17T02:42:00.217Z,2.10
2022-11-17T02:43:00.490Z,2.10
2022-11-17T02:44:00.858Z,2.00
2022-11-17T02:45:01.146Z,2.00
2022-11-17T02:46:01.443Z,2.10
2022-11-17T02:47:01.746Z,2.10
2022-11-17T02:48:02.044Z,2.00
2022-11-17T02:49:02.361Z,2.00
2022-11-17T02:50:02.689Z,2.10
2022-11-17T02:51:02.855Z,2.00
2022-11-17T02:52:03.157Z,2.00
2022-11-17T02:53:03.552Z,2.00
2022-11-17T02:54:03.729Z,2.10
2022-11-17T02:55:03.991Z,2.20
2022-11-17T02:56:04.334Z,2.10
2022-11-17T02:57:05.615Z,2.10
2022-11-17T02:58:04.915Z,2.20
2022-11-17T02:59:05.183Z,1.90
2022-11-17T03:00:05.482Z,2.00
2022-11-17T03:01:05.748Z,2.10
2022-11-17T03:02:06.094Z,2.40
2022-11-17T03:03:06.311Z,2.10
2022-11-17T03:04:06.658Z,2.20
2022-11-17T03:05:06.975Z,2.00
2022-11-17T03:06:07.274Z,2.10
2022-11-17T03:07:07.644Z,2.20
2022-11-17T03:08:07.862Z,2.10
2022-11-17T03:09:08.646Z,2.30
2022-11-17T03:10:08.512Z,2.00
2022-11-17T03:11:08.788Z,2.20
2022-11-17T03:12:09.082Z,2.20
2022-11-17T03:13:09.436Z,2.20
2022-11-17T03:14:09.787Z,2.60
2022-11-17T03:15:10.083Z,2.50
2022-11-17T03:16:10.382Z,2.30
2022-11-17T03:17:10.680Z,2.30
2022-11-17T03:18:10.977Z,2.50
2022-11-17T03:19:11.698Z,2.60
2022-11-17T03:20:11.632Z,2.70
2022-11-17T03:21:12.007Z,2.50
2022-11-17T03:22:12.177Z,2.50
2022-11-17T03:23:12.447Z,2.60
2022-11-17T03:24:12.769Z,2.60
2022-11-17T03:25:13.039Z,2.60
2022-11-17T03:26:13.402Z,2.40
2022-11-17T03:27:13.675Z,2.80
2022-11-17T03:28:13.951Z,2.80
2022-11-17T03:29:14.345Z,3.00
2022-11-17T03:30:14.494Z,3.00
2022-11-17T03:31:14.857Z,3.30
2022-11-17T03:32:15.130Z,2.70
2022-11-17T03:33:15.425Z,2.90
2022-11-17T03:34:15.760Z,2.50
2022-11-17T03:35:16.157Z,2.60
2022-11-17T03:36:16.416Z,2.50
2022-11-17T03:37:16.649Z,2.30
2022-11-17T03:38:16.886Z,2.20
2022-11-17T03:39:17.225Z,2.30
2022-11-17T03:40:17.656Z,2.40
2022-11-17T03:41:17.850Z,2.10
2022-11-17T03:42:18.117Z,2.30
2022-11-17T03:43:18.473Z,2.20
2022-11-17T03:44:18.738Z,2.20
2022-11-17T03:45:19.075Z,2.20
2022-11-17T03:46:19.348Z,2.10
2022-11-17T03:47:19.633Z,2.10
2022-11-17T03:48:19.950Z,2.30
2022-11-17T03:49:20.256Z,2.00
2022-11-17T03:50:20.589Z,2.10
2022-11-17T03:51:20.890Z,2.00
2022-11-17T03:52:21.186Z,2.30
2022-11-17T03:53:21.526Z,2.30
2022-11-17T03:54:21.789Z,2.00
2022-11-17T03:55:22.121Z,2.30
2022-11-17T03:56:22.377Z,2.20
2022-11-17T03:57:22.718Z,2.20
2022-11-17T03:58:23.027Z,2.20
2022-11-17T03:59:23.342Z,2.40
2022-11-17T04:00:23.603Z,2.40
2022-11-17T04:01:23.978Z,2.30
2022-11-17T04:02:24.281Z,2.50
2022-11-17T04:03:24.582Z,2.70
2022-11-17T04:04:24.884Z,3.00
2022-11-17T04:05:25.183Z,3.20
2022-11-17T04:06:25.442Z,3.10
2022-11-17T04:07:25.739Z,3.00
2022-11-17T04:08:26.067Z,3.10
2022-11-17T04:09:26.379Z,3.30
2022-11-17T04:10:26.657Z,3.20
2022-11-17T04:11:26.882Z,3.20
2022-11-17T04:12:27.201Z,3.20
2022-11-17T04:13:27.532Z,3.20
2022-11-17T04:14:27.744Z,3.40
2022-11-17T04:15:28.010Z,3.40
2022-11-17T04:16:28.279Z,3.20
2022-11-17T04:17:28.590Z,3.20
2022-11-17T04:18:28.925Z,3.30
2022-11-17T04:19:29.627Z,3.50
2022-11-17T04:20:29.499Z,3.80
2022-11-17T04:21:29.775Z,3.30
2022-11-17T04:22:30.045Z,3.20
2022-11-17T04:23:30.380Z,3.30
2022-11-17T04:24:30.699Z,2.90
2022-11-17T04:25:31.023Z,3.10
2022-11-17T04:26:31.343Z,3.50
2022-11-17T04:27:31.668Z,3.20
2022-11-17T04:28:31.867Z,3.20
2022-11-17T04:29:32.191Z,3.40
2022-11-17T04:30:32.497Z,3.30
2022-11-17T04:31:32.819Z,3.10
2022-11-17T04:32:33.080Z,3.20
2022-11-17T04:33:33.766Z,3.10
2022-11-17T04:34:33.696Z,2.80
2022-11-17T04:35:33.991Z,2.80
2022-11-17T04:36:34.259Z,2.50
2022-11-17T04:37:34.584Z,2.60
2022-11-17T04:38:34.898Z,2.40
2022-11-17T04:39:35.205Z,2.60
2022-11-17T04:40:35.502Z,2.60
2022-11-17T04:41:35.774Z,2.50
2022-11-17T04:42:36.066Z,2.60
2022-11-17T04:43:36.524Z,2.70
2022-11-17T04:44:36.636Z,2.40
2022-11-17T04:45:36.986Z,2.50
2022-11-17T04:46:37.325Z,2.50
2022-11-17T04:47:37.624Z,2.80
2022-11-17T04:48:37.843Z,2.60
2022-11-17T04:49:38.172Z,2.70
2022-11-17T04:50:38.446Z,2.50
2022-11-17T04:51:38.734Z,2.60
2022-11-17T04:52:38.995Z,2.40
2022-11-17T04:53:39.332Z,6.30
2022-11-17T04:54:39.613Z,2.70
2022-11-17T04:55:39.817Z,2.70
2022-11-17T04:56:40.087Z,2.90
2022-11-17T04:57:40.383Z,2.50
2022-11-17T04:58:40.663Z,2.40
2022-11-17T04:59:41.007Z,2.60
2022-11-17T05:00:41.351Z,2.40
2022-11-17T05:01:41.614Z,2.30
2022-11-17T05:02:41.937Z,2.30
2022-11-17T05:03:42.202Z,2.50
2022-11-17T05:04:42.496Z,2.40
2022-11-17T05:05:42.721Z,2.50
2022-11-17T05:06:42.977Z,2.20
2022-11-17T05:07:43.302Z,2.40
2022-11-17T05:08:43.575Z,2.30
2022-11-17T05:09:43.931Z,2.60
2022-11-17T05:10:44.166Z,2.70
2022-11-17T05:11:44.485Z,2.40
2022-11-17T05:12:44.852Z,2.50
2022-11-17T05:13:45.122Z,2.60
2022-11-17T05:14:45.477Z,2.40
2022-11-17T05:15:45.774Z,2.40
2022-11-17T05:16:46.054Z,2.40
2022-11-17T05:17:46.331Z,2.40
2022-11-17T05:18:46.677Z,2.30
2022-11-17T05:19:46.956Z,2.30
2022-11-17T05:20:47.284Z,2.30
2022-11-17T05:21:47.569Z,2.60
2022-11-17T05:22:47.885Z,2.30
2022-11-17T05:23:48.176Z,2.30
2022-11-17T05:24:48.471Z,2.50
2022-11-17T05:25:48.866Z,2.40
2022-11-17T05:26:49.079Z,2.50
2022-11-17T05:27:49.324Z,2.60
2022-11-17T05:28:49.689Z,2.70
2022-11-17T05:29:49.908Z,2.90
2022-11-17T05:30:50.198Z,2.70
2022-11-17T05:31:50.522Z,2.70
2022-11-17T05:32:50.765Z,2.70
2022-11-17T05:33:51.077Z,2.70
2022-11-17T05:34:51.399Z,2.90
2022-11-17T05:35:51.705Z,2.60
2022-11-17T05:36:51.926Z,2.80
2022-11-17T05:37:52.286Z,2.70
2022-11-17T05:38:52.533Z,2.60
2022-11-17T05:39:52.819Z,2.50
2022-11-17T05:40:53.120Z,2.70
2022-11-17T05:41:53.406Z,2.70
2022-11-17T05:42:57.062Z,2.60
2022-11-17T05:43:54.000Z,2.80
2022-11-17T05:44:54.274Z,2.70
2022-11-17T05:45:54.543Z,2.70
2022-11-17T05:46:54.870Z,2.70
2022-11-17T05:47:55.106Z,2.70
2022-11-17T05:48:55.452Z,2.60
2022-11-17T05:49:55.728Z,2.60
2022-11-17T05:50:56.000Z,2.70
2022-11-17T05:51:56.352Z,3.00
2022-11-17T05:52:56.548Z,2.70
2022-11-17T05:53:56.860Z,2.50
2022-11-17T05:54:57.145Z,2.70
2022-11-17T05:55:57.364Z,2.50
2022-11-17T05:56:57.719Z,2.80
2022-11-17T05:57:57.990Z,2.60
2022-11-17T05:58:58.263Z,2.60
2022-11-17T05:59:58.584Z,2.70
2022-11-17T06:00:58.949Z,2.40
2022-11-17T06:01:59.267Z,2.80
2022-11-17T06:02:59.472Z,2.60
2022-11-17T06:03:59.838Z,2.50
2022-11-17T06:04:59.964Z,2.70
2022-11-17T06:06:00.296Z,2.30
2022-11-17T06:07:01.127Z,2.30
2022-11-17T06:08:00.952Z,2.30
2022-11-17T06:09:01.311Z,2.30
2022-11-17T06:10:01.605Z,2.40
2022-11-17T06:11:01.899Z,2.40
2022-11-17T06:12:05.961Z,2.30
2022-11-17T06:13:02.471Z,2.00
2022-11-17T06:14:02.674Z,2.10
2022-11-17T06:15:03.016Z,2.00
2022-11-17T06:16:03.304Z,2.10
2022-11-17T06:17:03.591Z,2.10
2022-11-17T06:18:03.937Z,1.90
2022-11-17T06:19:04.185Z,2.10
2022-11-17T06:20:04.411Z,2.10
2022-11-17T06:21:04.723Z,1.90
2022-11-17T06:22:12.079Z,2.10
2022-11-17T06:23:06.321Z,2.20
2022-11-17T06:24:05.604Z,2.30
2022-11-17T06:25:05.820Z,1.90
2022-11-17T06:26:06.130Z,2.10
2022-11-17T06:27:06.358Z,2.00
2022-11-17T06:28:06.543Z,2.20
2022-11-17T06:29:06.878Z,4.50
2022-11-17T06:30:07.135Z,2.10
2022-11-17T06:31:07.405Z,2.20
2022-11-17T06:32:07.634Z,2.20
2022-11-17T06:33:07.866Z,2.20
2022-11-17T06:34:08.093Z,2.20
2022-11-17T06:35:08.506Z,2.20
2022-11-17T06:36:08.815Z,2.20
2022-11-17T06:37:08.994Z,2.00
2022-11-17T06:38:09.397Z,2.20
2022-11-17T06:39:09.664Z,2.20
2022-11-17T06:40:09.999Z,2.10
2022-11-17T06:41:12.051Z,2.10
2022-11-17T06:42:10.532Z,2.10
2022-11-17T06:43:10.740Z,2.00
2022-11-17T06:44:11.082Z,2.00
2022-11-17T06:45:11.399Z,2.20
2022-11-17T06:46:11.621Z,1.90
2022-11-17T06:47:11.884Z,2.20
2022-11-17T06:48:12.103Z,2.00
2022-11-17T06:49:12.378Z,1.90
2022-11-17T06:50:12.612Z,2.10
2022-11-17T06:51:12.946Z,2.10
2022-11-17T06:52:15.492Z,2.10
2022-11-17T06:53:13.631Z,2.00
2022-11-17T06:54:13.716Z,2.00
2022-11-17T06:55:14.122Z,2.10
2022-11-17T06:56:14.306Z,2.00
2022-11-17T06:57:14.529Z,2.00
2022-11-17T06:58:14.833Z,1.90
2022-11-17T06:59:15.057Z,1.90
2022-11-17T07:00:15.364Z,1.90
2022-11-17T07:01:15.616Z,2.00
2022-11-17T07:02:15.913Z,1.90
2022-11-17T07:03:16.105Z,2.00
2022-11-17T07:04:23.565Z,2.20
2022-11-17T07:05:16.719Z,2.10
2022-11-17T07:06:16.928Z,2.00
2022-11-17T07:07:17.198Z,2.00
2022-11-17T07:08:17.519Z,2.00
2022-11-17T07:09:17.772Z,2.10
2022-11-17T07:10:17.995Z,2.20
2022-11-17T07:11:18.252Z,2.00
2022-11-17T07:12:18.468Z,2.20
2022-11-17T07:13:19.671Z,2.10
2022-11-17T07:14:19.067Z,2.10
2022-11-17T07:15:19.322Z,2.00
2022-11-17T07:16:23.428Z,2.30
2022-11-17T07:17:19.974Z,2.10
2022-11-17T07:18:20.390Z,2.10
2022-11-17T07:19:20.503Z,2.00
2022-11-17T07:20:20.782Z,2.00
2022-11-17T07:21:21.008Z,2.20
2022-11-17T07:22:21.289Z,2.10
2022-11-17T07:23:21.582Z,2.10
2022-11-17T07:24:21.853Z,2.00
2022-11-17T07:25:22.659Z,2.10
2022-11-17T07:26:22.394Z,2.30
2022-11-17T07:27:22.662Z,2.00
2022-11-17T07:28:22.926Z,1.90
2022-11-17T07:29:23.177Z,2.20
2022-11-17T07:30:23.391Z,1.90
2022-11-17T07:31:23.766Z,2.00
2022-11-17T07:32:24.144Z,2.00
2022-11-17T07:33:24.296Z,2.00
2022-11-17T07:34:25.933Z,1.90
2022-11-17T07:35:27.613Z,1.80
2022-11-17T07:36:25.160Z,1.90
2022-11-17T07:37:25.418Z,1.80
2022-11-17T07:38:25.663Z,1.90
2022-11-17T07:39:27.010Z,1.80
2022-11-17T07:40:37.692Z,1.90
2022-11-17T07:41:26.661Z,1.90
2022-11-17T07:42:26.826Z,2.10
2022-11-17T07:43:34.212Z,2.00
2022-11-17T07:44:29.263Z,1.80
2022-11-17T07:45:32.271Z,1.90
2022-11-17T07:48:09.185Z,1.80
2022-11-17T07:49:03.935Z,1.80
2022-11-17T07:50:13.977Z,2.10
2022-11-17T07:52:21.017Z,1.90
2022-11-17T07:53:22.849Z,1.90
2022-11-17T07:54:16.778Z,2.00
2022-11-17T07:55:17.072Z,2.10
2022-11-17T07:56:17.302Z,2.20
2022-11-17T07:57:17.555Z,2.10
2022-11-17T07:58:17.860Z,2.10
2022-11-17T07:59:21.389Z,2.00
2022-11-17T08:00:18.341Z,2.10
2022-11-17T08:01:18.651Z,2.20
2022-11-17T08:02:18.924Z,1.90
2022-11-17T08:03:19.242Z,1.80
2022-11-17T08:04:19.652Z,1.80
2022-11-17T08:05:19.714Z,1.90
2022-11-17T08:06:20.033Z,1.90
2022-11-17T08:07:20.303Z,1.90
2022-11-17T08:08:20.506Z,1.80
2022-11-17T08:09:20.784Z,1.80
2022-11-17T08:10:21.147Z,1.80
2022-11-17T08:11:21.416Z,1.90
2022-11-17T08:12:22.634Z,2.10
2022-11-17T08:13:21.909Z,1.80
2022-11-17T08:14:22.188Z,2.00
2022-11-17T08:15:22.476Z,1.70
2022-11-17T08:16:22.762Z,1.90
2022-11-17T08:17:22.978Z,1.70
2022-11-17T08:18:23.279Z,2.30
2022-11-17T08:19:23.505Z,2.00
2022-11-17T08:20:23.816Z,1.90
2022-11-17T08:21:24.058Z,1.90
2022-11-17T08:22:24.374Z,2.10
2022-11-17T08:23:24.648Z,2.20
2022-11-17T08:24:24.968Z,3.70
2022-11-17T08:25:26.143Z,2.30
2022-11-17T08:26:25.437Z,2.10
2022-11-17T08:27:25.651Z,1.90
2022-11-17T08:28:25.932Z,2.10
2022-11-17T08:29:26.231Z,2.00
2022-11-17T08:30:26.505Z,2.20
2022-11-17T08:31:26.803Z,2.50
2022-11-17T08:32:27.033Z,2.30
2022-11-17T08:33:27.296Z,2.10
2022-11-17T08:34:27.544Z,2.10
2022-11-17T08:35:29.786Z,2.10
2022-11-17T08:36:29.149Z,2.00
2022-11-17T08:37:28.432Z,2.10
2022-11-17T08:38:28.695Z,2.20
2022-11-17T08:39:28.907Z,2.10
2022-11-17T08:40:29.238Z,1.90
2022-11-17T08:41:29.472Z,2.10
2022-11-17T08:42:29.764Z,2.10
2022-11-17T08:43:29.975Z,1.90
2022-11-17T08:44:30.269Z,1.90
2022-11-17T08:45:30.532Z,1.90
2022-11-17T08:46:30.767Z,2.10
2022-11-17T08:47:31.017Z,2.20
2022-11-17T08:48:31.270Z,2.10
2022-11-17T08:49:31.526Z,1.90
2022-11-17T08:50:31.819Z,2.00
2022-11-17T08:51:32.020Z,2.00
2022-11-17T08:52:33.253Z,2.00
2022-11-17T08:53:32.542Z,2.10
2022-11-17T08:54:32.812Z,2.30
2022-11-17T08:55:38.141Z,2.20
2022-11-17T08:56:34.433Z,2.40
2022-11-17T08:57:33.752Z,2.10
2022-11-17T08:58:34.264Z,2.20
2022-11-17T08:59:34.143Z,2.00
2022-11-17T09:00:34.398Z,2.10
2022-11-17T09:01:34.752Z,2.20
2022-11-17T09:02:34.979Z,2.50
2022-11-17T09:03:35.268Z,2.10
2022-11-17T09:04:35.575Z,2.40
2022-11-17T09:05:35.841Z,2.20
2022-11-17T09:06:36.067Z,2.30
2022-11-17T09:07:36.406Z,2.50
2022-11-17T09:08:51.913Z,2.60
2022-11-17T09:09:37.876Z,2.20
2022-11-17T09:10:37.183Z,2.10
2022-11-17T09:11:37.377Z,2.10
2022-11-17T09:12:37.627Z,2.20
2022-11-17T09:13:37.872Z,2.30
2022-11-17T09:14:38.257Z,2.30
2022-11-17T09:15:38.462Z,1.90
2022-11-17T09:16:38.760Z,2.50
2022-11-17T09:17:39.019Z,2.30
2022-11-17T09:18:39.872Z,2.30
2022-11-17T09:19:39.695Z,2.40
2022-11-17T09:20:45.373Z,2.40
2022-11-17T09:21:41.614Z,2.70
2022-11-17T09:22:40.460Z,2.50
2022-11-17T09:23:40.706Z,2.40
2022-11-17T09:24:41.044Z,3.50
2022-11-17T09:25:41.282Z,2.50
2022-11-17T09:26:41.540Z,2.40
2022-11-17T09:27:41.798Z,2.80
2022-11-17T09:28:42.093Z,2.40
2022-11-17T09:29:42.327Z,2.60
2022-11-17T09:30:42.587Z,2.50
2022-11-17T09:31:42.971Z,2.30
2022-11-17T09:32:43.126Z,2.40
2022-11-17T09:33:43.401Z,2.30
2022-11-17T09:34:43.785Z,2.40
2022-11-17T09:35:44.050Z,2.20
2022-11-17T09:36:44.343Z,2.40
2022-11-17T09:37:44.592Z,2.30
2022-11-17T09:38:45.773Z,2.70
2022-11-17T09:39:45.005Z,2.80
2022-11-17T09:40:45.307Z,2.60
2022-11-17T09:41:45.669Z,2.50
2022-11-17T09:42:46.184Z,2.50
2022-11-17T09:43:46.209Z,2.60
2022-11-17T09:44:46.491Z,2.70
2022-11-17T09:45:46.767Z,2.50
2022-11-17T09:46:47.036Z,2.90
2022-11-17T09:47:47.366Z,2.70
2022-11-17T09:48:47.636Z,2.80
2022-11-17T09:49:50.995Z,2.90
2022-11-17T09:50:49.164Z,3.60
2022-11-17T09:51:48.430Z,3.30
2022-11-17T09:52:48.691Z,9.80
2022-11-17T09:53:49.063Z,3.30
2022-11-17T09:54:49.424Z,3.60
2022-11-17T09:55:49.529Z,3.40
2022-11-17T09:56:49.784Z,3.00
2022-11-17T09:57:50.135Z,3.70
2022-11-17T09:58:50.345Z,5.00
2022-11-17T09:59:50.688Z,4.20
2022-11-17T10:00:50.973Z,7.80
2022-11-17T10:01:51.249Z,4.10
2022-11-17T10:02:51.513Z,3.40
2022-11-17T10:03:51.748Z,3.80
2022-11-17T10:04:52.498Z,4.60
2022-11-17T10:05:52.353Z,4.00
2022-11-17T10:06:52.680Z,3.30
2022-11-17T10:07:52.887Z,4.40
2022-11-17T10:08:53.181Z,5.20
2022-11-17T10:09:53.410Z,4.90
2022-11-17T10:10:53.700Z,4.40
2022-11-17T10:11:54.082Z,3.00
2022-11-17T10:12:54.722Z,3.20
2022-11-17T10:13:54.589Z,2.90
2022-11-17T10:14:54.829Z,3.00
2022-11-17T10:15:55.195Z,3.80
2022-11-17T10:16:55.424Z,4.10
2022-11-17T10:17:55.732Z,6.70
2022-11-17T10:18:55.945Z,4.20
2022-11-17T10:19:56.245Z,2.60
2022-11-17T10:20:56.510Z,2.90
2022-11-17T10:21:56.788Z,3.00
2022-11-17T10:22:57.117Z,2.80
2022-11-17T10:23:57.342Z,2.80
2022-11-17T10:24:57.683Z,2.70
2022-11-17T10:25:57.975Z,3.60
2022-11-17T10:26:58.261Z,3.60
2022-11-17T10:27:58.566Z,3.60
2022-11-17T10:28:59.637Z,2.90
2022-11-17T10:29:59.156Z,2.90
2022-11-17T10:30:59.528Z,3.10
2022-11-17T10:31:59.626Z,2.30
2022-11-17T10:32:59.915Z,3.20
2022-11-17T10:34:00.279Z,2.30
2022-11-17T10:35:00.551Z,2.50
2022-11-17T10:36:00.840Z,2.30
2022-11-17T10:37:01.386Z,2.80
2022-11-17T10:38:01.333Z,2.30
2022-11-17T10:39:01.652Z,2.50
2022-11-17T10:40:01.875Z,2.60
2022-11-17T10:41:02.148Z,2.20
2022-11-17T10:42:02.414Z,3.50
2022-11-17T10:43:02.710Z,2.30
2022-11-17T10:44:03.054Z,2.70
2022-11-17T10:45:03.277Z,2.30
2022-11-17T10:46:03.551Z,2.60
2022-11-17T10:47:04.072Z,2.20
2022-11-17T10:48:04.043Z,2.40
2022-11-17T10:49:04.392Z,2.20
2022-11-17T10:50:04.591Z,2.10
2022-11-17T10:51:04.870Z,2.30
2022-11-17T10:52:05.179Z,2.00
2022-11-17T10:53:10.109Z,2.40
2022-11-17T10:54:06.956Z,2.40
2022-11-17T10:55:06.030Z,2.70
2022-11-17T10:56:06.252Z,4.00
2022-11-17T10:57:06.580Z,2.30
2022-11-17T10:58:06.881Z,2.20
2022-11-17T10:59:07.163Z,2.20
2022-11-17T11:00:07.357Z,2.20
2022-11-17T11:01:07.690Z,2.00
2022-11-17T11:02:07.901Z,2.10
2022-11-17T11:03:08.200Z,2.20
2022-11-17T11:04:08.484Z,2.10
2022-11-17T11:05:08.716Z,2.40
2022-11-17T11:06:11.877Z,2.40
2022-11-17T11:07:10.312Z,2.20
2022-11-17T11:08:09.525Z,2.10
2022-11-17T11:09:09.904Z,2.30
2022-11-17T11:10:10.122Z,2.20
2022-11-17T11:11:10.410Z,2.20
2022-11-17T11:12:10.645Z,2.40
2022-11-17T11:13:10.937Z,2.90
2022-11-17T11:14:11.227Z,3.10
2022-11-17T11:15:11.639Z,3.40
2022-11-17T11:16:11.746Z,2.90
2022-11-17T11:17:12.129Z,2.40
2022-11-17T11:18:12.416Z,2.80
2022-11-17T11:19:12.663Z,3.40
2022-11-17T11:20:13.103Z,3.40
2022-11-17T11:21:13.251Z,3.10
2022-11-17T11:22:16.950Z,3.60
2022-11-17T11:23:16.106Z,3.00
2022-11-17T11:24:14.519Z,3.50
2022-11-17T11:25:14.412Z,2.30
2022-11-17T11:26:15.168Z,2.40
2022-11-17T11:27:15.071Z,2.60
2022-11-17T11:28:15.481Z,2.60
2022-11-17T11:29:15.615Z,2.70
2022-11-17T11:30:16.077Z,2.60
2022-11-17T11:31:16.131Z,3.00
2022-11-17T11:32:16.409Z,2.90
2022-11-17T11:33:16.688Z,2.80
2022-11-17T11:34:17.051Z,2.70
2022-11-17T11:35:17.637Z,2.40
2022-11-17T11:36:17.581Z,2.70
2022-11-17T11:37:17.777Z,3.10
2022-11-17T11:38:18.075Z,2.60
2022-11-17T11:39:18.369Z,2.80
2022-11-17T11:40:18.641Z,2.50
2022-11-17T11:41:19.011Z,3.00
2022-11-17T11:42:19.545Z,3.00
2022-11-17T11:43:19.516Z,3.10
2022-11-17T11:44:19.770Z,3.50
2022-11-17T11:45:20.182Z,2.60
2022-11-17T11:46:20.422Z,2.60
2022-11-17T11:47:20.737Z,2.80
2022-11-17T11:48:32.000Z,2.60
2022-11-17T11:49:21.220Z,3.10
2022-11-17T11:50:21.635Z,3.20
2022-11-17T11:51:22.191Z,2.60
2022-11-17T11:52:22.265Z,2.70
2022-11-17T11:53:22.338Z,3.20
2022-11-17T11:54:22.555Z,2.50
2022-11-17T11:55:22.866Z,2.60
2022-11-17T11:56:23.143Z,2.60
2022-11-17T11:57:23.432Z,3.00
2022-11-17T11:58:23.808Z,3.90
2022-11-17T11:59:24.014Z,3.00
2022-11-17T12:00:24.257Z,3.00
2022-11-17T12:01:24.602Z,3.00
2022-11-17T12:02:24.857Z,3.30
2022-11-17T12:03:25.222Z,3.20
2022-11-17T12:04:25.439Z,3.60
2022-11-17T12:05:25.747Z,2.90
2022-11-17T12:06:25.933Z,2.70
2022-11-17T12:07:26.237Z,2.60
2022-11-17T12:08:26.449Z,2.90
2022-11-17T12:09:26.740Z,2.70
2022-11-17T12:10:26.985Z,2.70
2022-11-17T12:11:27.286Z,4.50
2022-11-17T12:12:27.546Z,3.70
2022-11-17T12:13:27.813Z,2.90
2022-11-17T12:14:28.125Z,3.20
2022-11-17T12:15:28.413Z,3.80
2022-11-17T12:16:28.643Z,3.80
2022-11-17T12:17:28.935Z,3.70
2022-11-17T12:18:29.145Z,3.10
2022-11-17T12:19:29.401Z,2.70
2022-11-17T12:20:29.666Z,2.70
2022-11-17T12:21:29.946Z,2.80
2022-11-17T12:22:30.241Z,2.60
2022-11-17T12:23:30.481Z,2.60
2022-11-17T12:24:30.752Z,2.60
2022-11-17T12:25:31.050Z,2.50
2022-11-17T12:26:31.402Z,2.90
2022-11-17T12:27:31.670Z,2.80
2022-11-17T12:28:31.926Z,3.00
2022-11-17T12:29:32.239Z,2.80
2022-11-17T12:30:32.546Z,3.10
2022-11-17T12:31:32.811Z,2.80
2022-11-17T12:32:33.027Z,3.20
2022-11-17T12:33:33.293Z,2.40
2022-11-17T12:34:33.593Z,2.60
2022-11-17T12:35:33.833Z,2.40
2022-11-17T12:36:34.133Z,2.40
2022-11-17T12:37:34.391Z,2.60
2022-11-17T12:38:34.821Z,2.80
2022-11-17T12:39:35.141Z,2.60
2022-11-17T12:40:35.226Z,2.50
2022-11-17T12:41:35.472Z,2.40
2022-11-17T12:42:35.807Z,2.40
2022-11-17T12:43:36.074Z,2.30
2022-11-17T12:44:36.328Z,2.40
2022-11-17T12:45:41.763Z,2.80
2022-11-17T12:46:37.830Z,3.00
2022-11-17T12:47:37.195Z,2.60
2022-11-17T12:48:37.669Z,2.60
2022-11-17T12:49:37.594Z,2.70
2022-11-17T12:50:37.858Z,2.80
2022-11-17T12:51:38.182Z,2.80
2022-11-17T12:52:38.475Z,2.80
2022-11-17T12:53:38.693Z,2.80
2022-11-17T12:54:38.975Z,2.70
2022-11-17T12:55:39.268Z,2.60
2022-11-17T12:56:39.454Z,3.10
2022-11-17T12:57:39.816Z,3.30
2022-11-17T12:58:40.099Z,3.20
2022-11-17T12:59:40.372Z,3.30
2022-11-17T13:00:40.707Z,2.90
2022-11-17T13:01:40.995Z,3.00
2022-11-17T13:02:41.120Z,3.00
2022-11-17T13:03:41.563Z,3.70
2022-11-17T13:04:45.067Z,3.00
2022-11-17T13:05:42.984Z,5.10
2022-11-17T13:06:42.191Z,8.40
2022-11-17T13:07:42.478Z,4.60
2022-11-17T13:08:42.709Z,5.40
2022-11-17T13:09:43.943Z,5.70
2022-11-17T13:10:43.310Z,4.60
2022-11-17T13:11:43.581Z,3.70
2022-11-17T13:12:43.846Z,3.80
2022-11-17T13:13:47.086Z,3.60
2022-11-17T13:14:44.402Z,3.10
2022-11-17T13:15:44.723Z,3.30
2022-11-17T13:16:44.919Z,3.30
2022-11-17T13:17:45.285Z,3.10
2022-11-17T13:18:45.523Z,3.20
2022-11-17T13:19:45.770Z,6.60
2022-11-17T13:20:46.044Z,4.10
2022-11-17T13:21:46.315Z,3.50
2022-11-17T13:22:46.566Z,3.40
2022-11-17T13:23:46.978Z,3.60
2022-11-17T13:24:47.097Z,3.90